createdAt,value
2024-02-14T00:01:47.709Z,1.58
2024-02-14T00:06:50.613Z,1.52
2024-02-14T00:11:53.605Z,1.47
2024-02-14T00:16:58.038Z,1.45
2024-02-14T00:22:01.573Z,1.45
2024-02-14T00:27:04.905Z,1.47
2024-02-14T00:32:08.238Z,1.49
2024-02-14T00:37:12.464Z,1.52
2024-02-14T00:42:15.515Z,1.55
2024-02-14T00:47:18.397Z,1.59
2024-02-14T00:52:25.996Z,1.57
2024-02-14T00:57:30.025Z,1.57
2024-02-14T01:02:33.324Z,1.61
2024-02-14T01:07:37.198Z,1.70
2024-02-14T01:12:41.174Z,1.75
2024-02-14T01:17:44.271Z,1.79
2024-02-14T01:22:47.544Z,1.80
2024-02-14T01:27:50.433Z,1.86
2024-02-14T01:32:54.327Z,1.87
2024-02-14T01:37:58.597Z,1.89
2024-02-14T01:43:02.254Z,1.94
2024-02-14T01:48:07.752Z,1.93
2024-02-14T01:53:11.190Z,1.88
2024-02-14T01:58:15.255Z,1.84
2024-02-14T02:03:18.823Z,1.83
2024-02-14T02:08:22.530Z,1.86
2024-02-14T02:13:26.933Z,1.91
2024-02-14T02:18:29.914Z,2.00
2024-02-14T02:23:32.953Z,2.11
2024-02-14T02:28:35.819Z,2.19
2024-02-14T02:33:38.872Z,2.21
2024-02-14T02:38:41.960Z,2.21
2024-02-14T02:43:44.864Z,2.21
2024-02-14T02:48:49.002Z,2.24
2024-02-14T02:53:54.967Z,2.26
2024-02-14T02:58:58.497Z,2.29
2024-02-14T03:04:01.439Z,2.34
2024-02-14T03:09:04.482Z,2.37
2024-02-14T03:14:09.077Z,2.38
2024-02-14T03:19:11.940Z,2.36
2024-02-14T03:24:15.710Z,2.27
2024-02-14T03:29:20.695Z,2.20
2024-02-14T03:34:23.676Z,2.10
2024-02-14T03:39:26.655Z,2.01
2024-02-14T03:44:29.612Z,1.92
2024-02-14T03:49:32.831Z,1.83
2024-02-14T03:54:35.716Z,1.75
2024-02-14T03:59:40.432Z,1.65
2024-02-14T04:04:43.589Z,1.63
2024-02-14T04:09:46.560Z,1.63
2024-02-14T04:14:49.876Z,1.61
2024-02-14T04:19:52.936Z,1.55
2024-02-14T04:24:57.458Z,1.53
2024-02-14T04:30:03.526Z,1.55
2024-02-14T04:35:06.753Z,1.58
2024-02-14T04:40:11.297Z,1.59
2024-02-14T04:45:14.886Z,1.61
2024-02-14T04:50:17.983Z,1.63
2024-02-14T04:55:21.488Z,1.59
2024-02-14T05:00:24.539Z,1.54
2024-02-14T05:05:27.679Z,1.49
2024-02-14T05:10:30.985Z,1.45
2024-02-14T05:15:36.358Z,1.42
2024-02-14T05:20:39.533Z,1.42
2024-02-14T05:25:42.664Z,1.40
2024-02-14T05:30:46.189Z,1.36
2024-02-14T05:35:50.610Z,1.34
2024-02-14T05:40:55.204Z,1.31
2024-02-14T05:45:58.110Z,1.25
2024-02-14T05:51:01.026Z,1.21
2024-02-14T05:56:04.362Z,1.21
2024-02-14T06:01:07.580Z,1.24
2024-02-14T06:06:13.086Z,1.28
2024-02-14T06:11:17.357Z,1.30
2024-02-14T06:16:20.217Z,1.35
2024-02-14T06:21:23.127Z,1.43
2024-02-14T06:26:27.536Z,1.49
2024-02-14T06:31:30.545Z,1.54
2024-02-14T06:36:33.744Z,1.64
2024-02-14T06:41:37.063Z,1.77
2024-02-14T06:46:40.403Z,1.89
2024-02-14T06:51:45.010Z,1.98
2024-02-14T06:56:49.756Z,2.02
2024-02-14T07:02:12.474Z,2.09
2024-02-14T07:07:19.573Z,2.25
2024-02-14T07:12:28.090Z,2.46
2024-02-14T07:17:37.347Z,2.74
2024-02-14T07:23:03.719Z,2.96
2024-02-14T07:28:26.818Z,3.12
2024-02-14T07:33:37.917Z,3.25
2024-02-14T07:38:45.824Z,3.45
2024-02-14T07:43:48.840Z,3.68
2024-02-14T07:48:51.784Z,3.83
2024-02-14T07:53:56.324Z,4.03
2024-02-14T07:59:01.003Z,4.48
2024-02-14T08:04:06.045Z,4.93
2024-02-14T08:09:11.808Z,5.21
2024-02-14T08:14:15.687Z,5.45
2024-02-14T08:19:20.080Z,5.63
2024-02-14T08:24:24.423Z,5.80
2024-02-14T08:29:30.613Z,6.29
2024-02-14T08:34:33.736Z,6.76
2024-02-14T08:39:38.042Z,7.25
2024-02-14T08:44:41.862Z,7.59
2024-02-14T08:49:45.104Z,7.54
2024-02-14T08:54:53.247Z,7.25
2024-02-14T08:59:58.558Z,7.06
2024-02-14T09:05:05.071Z,7.11
2024-02-14T09:10:09.441Z,7.39
2024-02-14T09:15:13.148Z,7.58
2024-02-14T09:20:18.778Z,7.80
2024-02-14T09:25:26.108Z,8.11
2024-02-14T09:30:35.398Z,8.36
2024-02-14T09:35:45.758Z,8.56
2024-02-14T09:40:54.960Z,8.63
2024-02-14T09:45:59.713Z,8.65
2024-02-14T09:51:03.925Z,8.62
2024-02-14T09:56:07.736Z,8.70
2024-02-14T10:01:11.254Z,8.94
2024-02-14T10:06:17.299Z,9.05
2024-02-14T10:11:22.876Z,9.01
2024-02-14T10:16:27.355Z,8.65
2024-02-14T10:21:35.512Z,8.51
2024-02-14T10:31:42.585Z,8.77
2024-02-14T10:36:48.651Z,8.75
2024-02-14T10:41:55.834Z,8.69
2024-02-14T10:47:08.574Z,8.79
2024-02-14T10:52:13.105Z,8.83
2024-02-14T10:57:18.937Z,8.83
2024-02-14T11:02:23.727Z,8.75
2024-02-14T11:07:29.960Z,8.77
2024-02-14T11:12:38.175Z,8.74
2024-02-14T11:17:42.588Z,8.79
2024-02-14T11:22:59.496Z,8.92
2024-02-14T11:28:21.140Z,9.01
2024-02-14T11:33:28.896Z,9.13
2024-02-14T11:38:35.380Z,9.15
2024-02-14T11:43:41.117Z,9.20
2024-02-14T11:48:48.985Z,9.21
2024-02-14T11:53:52.962Z,9.16
2024-02-14T11:59:07.577Z,9.07
2024-02-14T12:04:20.666Z,9.00
2024-02-14T12:09:42.769Z,8.92
2024-02-14T12:15:16.188Z,8.82
2024-02-14T12:20:55.618Z,8.76
2024-02-14T12:26:09.861Z,8.72
2024-02-14T12:31:23.337Z,8.69
2024-02-14T12:36:30.203Z,8.71
2024-02-14T12:41:37.144Z,8.71
2024-02-14T12:46:40.297Z,8.81
2024-02-14T12:51:43.799Z,8.86
2024-02-14T12:56:46.801Z,8.97
2024-02-14T13:01:52.725Z,9.01
2024-02-14T13:07:01.612Z,8.97
2024-02-14T13:12:16.894Z,9.01
2024-02-14T13:17:24.533Z,9.17
2024-02-14T13:22:28.075Z,9.30
2024-02-14T13:27:31.205Z,9.30
2024-02-14T13:32:34.433Z,9.30
2024-02-14T13:37:38.135Z,9.30
2024-02-14T13:42:41.479Z,9.30
2024-02-14T13:47:45.101Z,9.28
2024-02-14T13:52:48.786Z,9.23
2024-02-14T13:57:52.250Z,9.17
2024-02-14T14:02:56.849Z,9.15
2024-02-14T14:08:01.871Z,9.19
2024-02-14T14:13:05.135Z,9.20
2024-02-14T14:18:09.827Z,9.16
2024-02-14T14:23:14.653Z,9.13
2024-02-14T14:28:18.752Z,9.00
2024-02-14T14:33:22.895Z,8.72
2024-02-14T14:38:27.847Z,8.43
2024-02-14T14:43:30.883Z,8.25
2024-02-14T14:48:37.050Z,8.08
2024-02-14T14:53:40.529Z,7.92
2024-02-14T14:58:44.223Z,7.75
2024-02-14T15:03:47.757Z,7.60
2024-02-14T15:08:50.764Z,7.50
2024-02-14T15:13:54.320Z,7.43
2024-02-14T15:18:57.450Z,7.37
2024-02-14T15:24:00.512Z,7.29
2024-02-14T15:29:22.365Z,7.19
2024-02-14T15:34:25.954Z,7.08
2024-02-14T15:39:28.949Z,6.99
2024-02-14T15:44:31.908Z,6.89
2024-02-14T15:49:36.790Z,6.80
2024-02-14T15:54:45.542Z,6.73
2024-02-14T15:59:48.708Z,6.68
2024-02-14T16:04:51.712Z,6.65
2024-02-14T16:09:54.562Z,6.63
2024-02-14T16:14:58.697Z,6.57
2024-02-14T16:20:01.780Z,6.49
2024-02-14T16:25:08.789Z,6.42
2024-02-14T16:30:11.802Z,6.33
2024-02-14T16:35:14.876Z,6.25
2024-02-14T16:40:17.973Z,6.19
2024-02-14T16:45:21.736Z,6.15
2024-02-14T16:50:26.390Z,6.16
2024-02-14T16:55:29.264Z,6.17
2024-02-14T17:00:32.874Z,6.16
2024-02-14T17:05:37.471Z,6.12
2024-02-14T17:10:40.843Z,6.07
2024-02-14T17:15:43.985Z,6.06
2024-02-14T17:20:48.190Z,6.06
2024-02-14T17:25:51.387Z,6.07
2024-02-14T17:30:54.253Z,6.06
2024-02-14T17:35:57.835Z,6.05
2024-02-14T17:41:01.613Z,6.02
2024-02-14T17:46:07.617Z,6.00
2024-02-14T17:51:11.624Z,6.01
2024-02-14T17:56:17.285Z,5.99
2024-02-14T18:01:20.431Z,5.97
2024-02-14T18:06:25.020Z,5.93
2024-02-14T18:11:28.668Z,5.90
2024-02-14T18:16:32.297Z,5.89
2024-02-14T18:21:35.142Z,5.88
2024-02-14T18:26:38.986Z,5.85
2024-02-14T18:31:41.958Z,5.81
2024-02-14T18:36:45.063Z,5.81
2024-02-14T18:41:47.980Z,5.81
2024-02-14T18:46:52.937Z,5.82
2024-02-14T18:51:55.822Z,5.81
2024-02-14T18:56:59.583Z,5.78
2024-02-14T19:02:09.558Z,5.78
2024-02-14T19:07:12.769Z,5.80
2024-02-14T19:12:15.801Z,5.81
2024-02-14T19:17:18.983Z,5.79
2024-02-14T19:22:22.464Z,5.77
2024-02-14T19:27:25.477Z,5.77
2024-02-14T19:32:28.839Z,5.78
2024-02-14T19:37:34.081Z,5.76
2024-02-14T19:42:37.793Z,5.73
2024-02-14T19:47:41.072Z,5.71
2024-02-14T19:52:44.763Z,5.72
2024-02-14T19:57:47.624Z,5.71
2024-02-14T20:02:50.497Z,5.69
2024-02-14T20:07:53.982Z,5.68
2024-02-14T20:12:56.953Z,5.69
2024-02-14T20:18:00.941Z,5.72
2024-02-14T20:23:04.122Z,5.71
2024-02-14T20:28:06.991Z,5.70
2024-02-14T20:33:09.877Z,5.70
2024-02-14T20:38:12.903Z,5.73
2024-02-14T20:43:15.806Z,5.74
2024-02-14T20:48:19.330Z,5.73
2024-02-14T20:53:22.414Z,5.69
2024-02-14T20:58:27.078Z,5.65
2024-02-14T21:03:32.731Z,5.65
2024-02-14T21:08:35.970Z,5.64
2024-02-14T21:13:39.030Z,5.65
2024-02-14T21:18:42.492Z,5.62
2024-02-14T21:23:46.863Z,5.60
2024-02-14T21:28:49.826Z,5.61
2024-02-14T21:33:52.836Z,5.62
2024-02-14T21:38:55.839Z,5.60
2024-02-14T21:44:01.657Z,5.56
2024-02-14T21:49:07.688Z,5.54
2024-02-14T21:54:11.329Z,5.56
2024-02-14T21:59:14.225Z,5.57
2024-02-14T22:04:17.847Z,5.56
2024-02-14T22:09:22.279Z,5.54
2024-02-14T22:14:25.747Z,5.52
2024-02-14T22:19:29.282Z,5.53
2024-02-14T22:24:33.588Z,5.54
2024-02-14T22:29:39.418Z,5.53
2024-02-14T22:34:43.772Z,5.51
2024-02-14T22:39:48.273Z,5.49
2024-02-14T22:44:52.563Z,5.50
2024-02-14T22:49:55.893Z,5.50
2024-02-14T22:54:59.412Z,5.48
2024-02-14T23:00:06.793Z,5.45
2024-02-14T23:05:15.561Z,5.46
2024-02-14T23:10:18.910Z,5.47
2024-02-14T23:15:21.906Z,5.49
2024-02-14T23:20:25.014Z,5.48
2024-02-14T23:25:31.918Z,5.46
2024-02-14T23:30:36.345Z,5.47
2024-02-14T23:35:43.595Z,5.49
2024-02-14T23:40:46.724Z,5.49
2024-02-14T23:45:49.641Z,5.46
2024-02-14T23:50:53.038Z,5.46
2024-02-14T23:55:57.986Z,5.46
